createdAt,value
2017-06-09T00:00:05.289Z,1012.94
2017-06-09T00:01:05.325Z,1012.95
2017-06-09T00:02:05.361Z,1012.92
2017-06-09T00:03:05.373Z,1012.92
2017-06-09T00:04:05.556Z,1012.97
2017-06-09T00:05:05.463Z,1012.93
2017-06-09T00:06:05.494Z,1012.91
2017-06-09T00:07:05.529Z,1012.93
2017-06-09T00:08:05.544Z,1012.92
2017-06-09T00:09:05.599Z,1012.92
2017-06-09T00:10:05.629Z,1012.9
2017-06-09T00:11:05.664Z,1012.88
2017-06-09T00:12:05.700Z,1012.85
2017-06-09T00:13:05.735Z,1012.87
2017-06-09T00:14:05.763Z,1012.83
2017-06-09T00:15:05.799Z,1012.85
2017-06-09T00:16:05.837Z,1012.82
2017-06-09T00:17:05.868Z,1012.84
2017-06-09T00:18:05.907Z,1012.84
2017-06-09T00:19:05.936Z,1012.82
2017-06-09T00:20:05.969Z,1012.88
2017-06-09T00:21:06.007Z,1012.86
2017-06-09T00:22:06.040Z,1012.88
2017-06-09T00:23:06.070Z,1012.84
2017-06-09T00:24:06.127Z,1012.9
2017-06-09T00:25:06.127Z,1012.85
2017-06-09T00:26:06.174Z,1012.83
2017-06-09T00:27:06.208Z,1012.85
2017-06-09T00:28:06.245Z,1012.8
2017-06-09T00:29:06.275Z,1012.81
2017-06-09T00:30:06.350Z,1012.81
2017-06-09T00:31:06.342Z,1012.83
2017-06-09T00:32:06.374Z,1012.84
2017-06-09T00:33:06.415Z,1012.82
2017-06-09T00:34:06.444Z,1012.76
2017-06-09T00:35:06.477Z,1012.81
2017-06-09T00:36:06.510Z,1012.79
2017-06-09T00:37:06.548Z,1012.76
2017-06-09T00:38:06.560Z,1012.76
2017-06-09T00:39:06.626Z,1012.78
2017-06-09T00:40:06.650Z,1012.77
2017-06-09T00:41:06.679Z,1012.73
2017-06-09T00:42:06.719Z,1012.75
2017-06-09T00:43:06.739Z,1012.73
2017-06-09T00:44:06.767Z,1012.71
2017-06-09T00:45:06.818Z,1012.71
2017-06-09T00:46:06.868Z,1012.7
2017-06-09T00:47:06.869Z,1012.67
2017-06-09T00:48:06.919Z,1012.68
2017-06-09T00:49:06.955Z,1012.64
2017-06-09T00:50:06.974Z,1012.66
2017-06-09T00:51:07.017Z,1012.61
2017-06-09T00:52:07.057Z,1012.63
2017-06-09T00:53:07.073Z,1012.61
2017-06-09T00:54:07.120Z,1012.62
2017-06-09T00:55:07.156Z,1012.58
2017-06-09T00:56:07.191Z,1012.59
2017-06-09T00:57:07.223Z,1012.59
2017-06-09T00:58:07.256Z,1012.55
2017-06-09T00:59:07.292Z,1012.53
2017-06-09T01:00:07.322Z,1012.53
2017-06-09T01:01:07.362Z,1012.51
2017-06-09T01:02:07.393Z,1012.51
2017-06-09T01:03:07.425Z,1012.5
2017-06-09T01:04:07.461Z,1012.52
2017-06-09T01:05:07.492Z,1012.47
2017-06-09T01:06:07.525Z,1012.46
2017-06-09T01:07:07.561Z,1012.48
2017-06-09T01:08:07.596Z,1012.45
2017-06-09T01:09:07.624Z,1012.42
2017-06-09T01:10:07.661Z,1012.4
2017-06-09T01:11:07.695Z,1012.41
2017-06-09T01:12:07.727Z,1012.38
2017-06-09T01:13:07.761Z,1012.35
2017-06-09T01:14:07.794Z,1012.34
2017-06-09T01:15:07.828Z,1012.3
2017-06-09T01:16:07.862Z,1012.3
2017-06-09T01:17:07.892Z,1012.25
2017-06-09T01:18:07.928Z,1012.27
2017-06-09T01:19:07.966Z,1012.29
2017-06-09T01:20:07.994Z,1012.26
2017-06-09T01:21:08.035Z,1012.24
2017-06-09T01:22:08.064Z,1012.19
2017-06-09T01:23:08.102Z,1012.24
2017-06-09T01:24:08.127Z,1012.18
2017-06-09T01:25:08.262Z,1012.15
2017-06-09T01:26:08.198Z,1012.19
2017-06-09T01:27:08.229Z,1012.15
2017-06-09T01:28:08.260Z,1012.16
2017-06-09T01:29:08.285Z,1012.13
2017-06-09T01:30:08.329Z,1012.16
2017-06-09T01:31:08.367Z,1012.13
2017-06-09T01:32:08.397Z,1012.17
2017-06-09T01:33:08.430Z,1012.2
2017-06-09T01:34:08.465Z,1012.13
2017-06-09T01:35:08.495Z,1012.16
2017-06-09T01:36:08.532Z,1012.12
2017-06-09T01:37:08.565Z,1012.05
2017-06-09T01:38:08.596Z,1012.05
2017-06-09T01:39:08.630Z,1012.06
2017-06-09T01:40:08.666Z,1012.03
2017-06-09T01:41:08.699Z,1012.01
2017-06-09T01:42:08.730Z,1012.03
2017-06-09T01:43:08.762Z,1011.99
2017-06-09T01:44:08.798Z,1011.96
2017-06-09T01:45:08.829Z,1011.96
2017-06-09T01:46:08.868Z,1011.9
2017-06-09T01:47:08.897Z,1011.91
2017-06-09T01:48:08.929Z,1011.91
2017-06-09T01:49:08.965Z,1011.9
2017-06-09T01:50:08.998Z,1011.86
2017-06-09T01:51:09.030Z,1011.84
2017-06-09T01:52:09.064Z,1011.81
2017-06-09T01:53:09.096Z,1011.83
2017-06-09T01:54:09.131Z,1011.82
2017-06-09T01:55:09.164Z,1011.84
2017-06-09T01:56:09.198Z,1011.79
2017-06-09T01:57:09.238Z,1011.77
2017-06-09T01:58:09.267Z,1011.73
2017-06-09T01:59:09.275Z,1011.71
2017-06-09T02:00:09.329Z,1011.69
2017-06-09T02:01:09.364Z,1011.7
2017-06-09T02:02:09.378Z,1011.69
2017-06-09T02:03:09.410Z,1011.7
2017-06-09T02:04:09.463Z,1011.69
2017-06-09T02:05:09.496Z,1011.71
2017-06-09T02:06:09.509Z,1011.72
2017-06-09T02:07:09.559Z,1011.75
2017-06-09T02:08:09.595Z,1011.72
2017-06-09T02:09:09.630Z,1011.75
2017-06-09T02:10:09.665Z,1011.74
2017-06-09T02:11:09.673Z,1011.77
2017-06-09T02:12:09.732Z,1011.73
2017-06-09T02:13:09.767Z,1011.72
2017-06-09T02:14:09.795Z,1011.76
2017-06-09T02:15:09.824Z,1011.74
2017-06-09T02:16:09.865Z,1011.69
2017-06-09T02:17:09.894Z,1011.73
2017-06-09T02:18:09.924Z,1011.7
2017-06-09T02:19:09.961Z,1011.71
2017-06-09T02:20:09.995Z,1011.69
2017-06-09T02:21:10.028Z,1011.71
2017-06-09T02:22:10.061Z,1011.73
2017-06-09T02:23:10.092Z,1011.67
2017-06-09T02:24:10.129Z,1011.63
2017-06-09T02:25:10.162Z,1011.67
2017-06-09T02:26:10.193Z,1011.68
2017-06-09T02:27:10.229Z,1011.61
2017-06-09T02:28:10.259Z,1011.62
2017-06-09T02:29:10.295Z,1011.63
2017-06-09T02:30:10.323Z,1011.66
2017-06-09T02:31:10.357Z,1011.64
2017-06-09T02:32:10.389Z,1011.64
2017-06-09T02:33:10.427Z,1011.65
2017-06-09T02:34:10.458Z,1011.63
2017-06-09T02:35:10.491Z,1011.66
2017-06-09T02:36:10.521Z,1011.69
2017-06-09T02:37:10.561Z,1011.69
2017-06-09T02:38:10.588Z,1011.67
2017-06-09T02:39:10.623Z,1011.7
2017-06-09T02:40:10.659Z,1011.67
2017-06-09T02:41:10.693Z,1011.69
2017-06-09T02:42:10.717Z,1011.75
2017-06-09T02:43:10.757Z,1011.75
2017-06-09T02:44:10.789Z,1011.72
2017-06-09T02:45:10.822Z,1011.71
2017-06-09T02:46:10.837Z,1011.72
2017-06-09T02:47:10.889Z,1011.68
2017-06-09T02:48:10.922Z,1011.72
2017-06-09T02:49:10.954Z,1011.68
2017-06-09T02:50:10.970Z,1011.7
2017-06-09T02:51:11.018Z,1011.67
2017-06-09T02:52:11.054Z,1011.69
2017-06-09T02:53:11.065Z,1011.65
2017-06-09T02:54:11.117Z,1011.66
2017-06-09T02:55:11.147Z,1011.7
2017-06-09T02:56:11.168Z,1011.6
2017-06-09T02:57:11.214Z,1011.63
2017-06-09T02:58:11.246Z,1011.63
2017-06-09T02:59:11.269Z,1011.59
2017-06-09T03:00:11.314Z,1011.5
2017-06-09T03:01:11.345Z,1011.57
2017-06-09T03:02:11.369Z,1011.54
2017-06-09T03:03:11.411Z,1011.56
2017-06-09T03:04:11.454Z,1011.52
2017-06-09T03:05:11.470Z,1011.6
2017-06-09T03:06:11.498Z,1011.62
2017-06-09T03:07:11.546Z,1011.63
2017-06-09T03:08:11.574Z,1011.62
2017-06-09T03:09:11.608Z,1011.67
2017-06-09T03:10:11.643Z,1011.7
2017-06-09T03:11:11.676Z,1011.74
2017-06-09T03:12:11.711Z,1011.79
2017-06-09T03:13:11.721Z,1011.77
2017-06-09T03:14:11.773Z,1011.81
2017-06-09T03:15:11.809Z,1011.81
2017-06-09T03:16:11.845Z,1011.86
2017-06-09T03:17:11.854Z,1011.92
2017-06-09T03:18:11.886Z,1011.93
2017-06-09T03:19:11.952Z,1011.91
2017-06-09T03:20:11.973Z,1011.98
2017-06-09T03:21:12.004Z,1011.99
2017-06-09T03:22:12.037Z,1012.01
2017-06-09T03:23:12.074Z,1012.01
2017-06-09T03:24:12.105Z,1011.98
2017-06-09T03:25:12.139Z,1011.99
2017-06-09T03:26:12.171Z,1011.96
2017-06-09T03:27:12.206Z,1012.02
2017-06-09T03:28:12.238Z,1011.98
2017-06-09T03:29:12.271Z,1011.98
2017-06-09T03:30:12.285Z,1012.04
2017-06-09T03:31:12.336Z,1012.02
2017-06-09T03:32:12.371Z,1012.03
2017-06-09T03:33:12.403Z,1011.98
2017-06-09T03:34:12.436Z,1012
2017-06-09T03:35:12.471Z,1011.96
2017-06-09T03:36:12.572Z,1011.94
2017-06-09T03:37:12.517Z,1011.93
2017-06-09T03:38:12.572Z,1011.99
2017-06-09T03:39:12.598Z,1011.92
2017-06-09T03:40:12.634Z,1011.95
2017-06-09T03:41:12.668Z,1011.99
2017-06-09T03:42:12.701Z,1011.94
2017-06-09T03:43:12.736Z,1011.98
2017-06-09T03:44:12.755Z,1011.96
2017-06-09T03:45:12.798Z,1011.94
2017-06-09T03:46:12.834Z,1011.97
2017-06-09T03:47:12.871Z,1011.93
2017-06-09T03:48:12.900Z,1011.95
2017-06-09T03:49:12.935Z,1011.99
2017-06-09T03:50:12.966Z,1011.96
2017-06-09T03:51:12.995Z,1011.98
2017-06-09T03:52:13.036Z,1011.98
2017-06-09T03:53:13.068Z,1012.01
2017-06-09T03:54:13.098Z,1012.05
2017-06-09T03:55:13.134Z,1011.98
2017-06-09T03:56:13.164Z,1012.02
2017-06-09T03:57:13.193Z,1011.93
2017-06-09T03:58:13.229Z,1011.96
2017-06-09T03:59:13.262Z,1011.97
2017-06-09T04:00:13.293Z,1012
2017-06-09T04:01:13.325Z,1012
2017-06-09T04:02:13.364Z,1011.96
2017-06-09T04:03:13.387Z,1012.01
2017-06-09T04:04:13.424Z,1011.99
2017-06-09T04:05:13.463Z,1012.04
2017-06-09T04:06:13.500Z,1012
2017-06-09T04:07:13.526Z,1012.06
2017-06-09T04:08:13.555Z,1012.08
2017-06-09T04:09:13.624Z,1012.12
2017-06-09T04:10:13.631Z,1012.14
2017-06-09T04:11:13.664Z,1012.19
2017-06-09T04:12:13.684Z,1012.28
2017-06-09T04:13:13.756Z,1012.41
2017-06-09T04:14:13.763Z,1012.53
2017-06-09T04:15:13.788Z,1012.45
2017-06-09T04:16:13.825Z,1012.46
2017-06-09T04:17:13.862Z,1012.5
2017-06-09T04:18:13.897Z,1012.48
2017-06-09T04:19:13.923Z,1012.53
2017-06-09T04:20:13.965Z,1012.48
2017-06-09T04:21:14.025Z,1012.49
2017-06-09T04:22:14.035Z,1012.75
2017-06-09T04:23:14.062Z,1012.93
2017-06-09T04:24:14.131Z,1013.03
2017-06-09T04:25:14.141Z,1013.16
2017-06-09T04:26:14.165Z,1013.15
2017-06-09T04:27:14.208Z,1012.98
2017-06-09T04:28:14.263Z,1012.63
2017-06-09T04:29:14.272Z,1012.34
2017-06-09T04:30:14.314Z,1012.11
2017-06-09T04:31:14.353Z,1012.03
2017-06-09T04:32:14.383Z,1012.04
2017-06-09T04:33:14.418Z,1012.04
2017-06-09T04:34:14.455Z,1012.06
2017-06-09T04:35:14.522Z,1012.03
2017-06-09T04:36:14.527Z,1012.03
2017-06-09T04:37:14.561Z,1012.26
2017-06-09T04:38:14.606Z,1012.26
2017-06-09T04:39:14.633Z,1012.11
2017-06-09T04:40:14.667Z,1012.2
2017-06-09T04:41:14.705Z,1012.39
2017-06-09T04:42:14.778Z,1012.39
2017-06-09T04:43:14.786Z,1012.33
2017-06-09T04:44:14.815Z,1012.5
2017-06-09T04:45:14.860Z,1012.23
2017-06-09T04:46:14.882Z,1011.98
2017-06-09T04:47:14.932Z,1011.89
2017-06-09T04:48:14.994Z,1011.89
2017-06-09T04:49:15.005Z,1011.83
2017-06-09T04:50:15.038Z,1011.84
2017-06-09T04:51:15.081Z,1011.8
2017-06-09T04:52:15.103Z,1011.81
2017-06-09T04:53:15.140Z,1011.78
2017-06-09T04:54:15.185Z,1011.79
2017-06-09T04:55:15.469Z,1011.75
2017-06-09T04:56:15.252Z,1011.76
2017-06-09T04:57:15.291Z,1011.78
2017-06-09T04:58:15.324Z,1011.73
2017-06-09T04:59:15.395Z,1011.7
2017-06-09T05:00:15.399Z,1011.7
2017-06-09T05:01:15.440Z,1011.71
2017-06-09T05:02:15.478Z,1011.68
2017-06-09T05:03:15.506Z,1011.75
2017-06-09T05:04:15.536Z,1011.67
2017-06-09T05:05:15.600Z,1011.65
2017-06-09T05:06:15.623Z,1011.7
2017-06-09T05:07:15.653Z,1011.68
2017-06-09T05:08:15.690Z,1011.62
2017-06-09T05:09:15.759Z,1011.65
2017-06-09T05:10:15.764Z,1011.7
2017-06-09T05:11:15.791Z,1011.67
2017-06-09T05:12:15.868Z,1011.72
2017-06-09T05:13:15.879Z,1011.67
2017-06-09T05:14:15.942Z,1011.69
2017-06-09T05:15:15.944Z,1011.66
2017-06-09T05:16:15.986Z,1011.6
2017-06-09T05:17:16.010Z,1011.64
2017-06-09T05:18:16.055Z,1011.64
2017-06-09T05:19:16.089Z,1011.65
2017-06-09T05:20:16.127Z,1011.68
2017-06-09T05:21:16.173Z,1011.68
2017-06-09T05:22:16.207Z,1011.74
2017-06-09T05:23:16.242Z,1011.72
2017-06-09T05:24:16.284Z,1011.73
2017-06-09T05:25:16.319Z,1011.77
2017-06-09T05:26:16.350Z,1011.79
2017-06-09T05:27:16.382Z,1011.77
2017-06-09T05:28:16.430Z,1011.75
2017-06-09T05:29:16.456Z,1011.78
2017-06-09T05:30:16.494Z,1011.8
2017-06-09T05:31:16.543Z,1011.75
2017-06-09T05:32:16.606Z,1011.74
2017-06-09T05:33:16.617Z,1011.69
2017-06-09T05:34:16.656Z,1011.67
2017-06-09T05:35:16.691Z,1011.66
2017-06-09T05:36:16.718Z,1011.66
2017-06-09T05:37:16.766Z,1011.65
2017-06-09T05:38:16.795Z,1011.67
2017-06-09T05:39:16.835Z,1011.68
2017-06-09T05:40:16.875Z,1011.69
2017-06-09T05:41:16.941Z,1011.68
2017-06-09T05:42:16.947Z,1011.65
2017-06-09T05:43:16.982Z,1011.6
2017-06-09T05:44:17.026Z,1011.66
2017-06-09T05:45:17.059Z,1011.64
2017-06-09T05:46:17.093Z,1011.68
2017-06-09T05:47:17.147Z,1011.63
2017-06-09T05:48:17.204Z,1011.65
2017-06-09T05:49:17.212Z,1011.68
2017-06-09T05:50:17.245Z,1011.67
2017-06-09T05:51:17.311Z,1011.68
2017-06-09T05:52:17.310Z,1011.7
2017-06-09T05:53:17.360Z,1011.68
2017-06-09T05:54:17.394Z,1011.72
2017-06-09T05:55:17.435Z,1011.77
2017-06-09T05:56:17.474Z,1011.77
2017-06-09T05:57:17.498Z,1011.74
2017-06-09T05:58:17.537Z,1011.79
2017-06-09T05:59:17.582Z,1011.77
2017-06-09T06:00:17.615Z,1011.8
2017-06-09T06:01:17.658Z,1011.86
2017-06-09T06:02:17.697Z,1011.89
2017-06-09T06:03:17.764Z,1011.85
2017-06-09T06:04:17.801Z,1011.83
2017-06-09T06:05:18.021Z,1011.83
2017-06-09T06:06:17.847Z,1011.88
2017-06-09T06:07:17.878Z,1011.93
2017-06-09T06:08:17.918Z,1011.93
2017-06-09T06:09:17.963Z,1012.03
2017-06-09T06:10:17.993Z,1012.05
2017-06-09T06:11:18.035Z,1012.02
2017-06-09T06:12:18.075Z,1012.04
2017-06-09T06:13:18.106Z,1012.02
2017-06-09T06:14:18.149Z,1012.04
2017-06-09T06:15:18.210Z,1012.06
2017-06-09T06:16:18.223Z,1012.06
2017-06-09T06:17:18.263Z,1011.96
2017-06-09T06:18:18.294Z,1012.03
2017-06-09T06:19:18.372Z,1012.01
2017-06-09T06:20:18.378Z,1011.98
2017-06-09T06:21:18.416Z,1012.02
2017-06-09T06:22:18.457Z,1012
2017-06-09T06:23:18.502Z,1012.05
2017-06-09T06:24:18.545Z,1012
2017-06-09T06:25:18.611Z,1012
2017-06-09T06:26:18.615Z,1012.04
2017-06-09T06:27:18.670Z,1011.87
2017-06-09T06:28:18.699Z,1011.92
2017-06-09T06:29:18.741Z,1011.88
2017-06-09T06:30:18.812Z,1011.94
2017-06-09T06:31:18.837Z,1011.96
2017-06-09T06:32:18.860Z,1011.94
2017-06-09T06:33:18.905Z,1011.98
2017-06-09T06:34:02.996Z,1011.93
2017-06-09T06:35:03.049Z,1011.93
2017-06-09T06:36:03.060Z,1011.86
2017-06-09T06:37:03.102Z,1011.92
2017-06-09T06:38:03.144Z,1011.94
2017-06-09T06:39:03.192Z,1011.86
2017-06-09T06:40:03.227Z,1011.94
2017-06-09T06:41:03.272Z,1011.94
2017-06-09T06:42:03.297Z,1011.91
2017-06-09T06:43:03.356Z,1011.94
2017-06-09T06:44:03.397Z,1011.95
2017-06-09T06:45:03.438Z,1011.93
2017-06-09T06:46:03.478Z,1011.87
2017-06-09T06:47:03.501Z,1011.88
2017-06-09T06:48:03.568Z,1011.89
2017-06-09T06:49:03.606Z,1011.89
2017-06-09T06:50:03.669Z,1011.92
2017-06-09T06:51:03.697Z,1011.91
2017-06-09T06:52:03.740Z,1012
2017-06-09T06:53:03.775Z,1011.95
2017-06-09T06:54:03.821Z,1011.9
2017-06-09T06:55:03.850Z,1011.91
2017-06-09T06:56:03.901Z,1011.89
2017-06-09T06:57:03.971Z,1011.78
2017-06-09T06:58:04.006Z,1011.78
2017-06-09T06:59:04.033Z,1011.83
2017-06-09T07:00:04.066Z,1011.82
2017-06-09T07:01:04.120Z,1011.86
2017-06-09T07:02:04.160Z,1011.91
2017-06-09T07:03:04.206Z,1011.89
2017-06-09T07:04:04.246Z,1011.78
2017-06-09T07:05:04.304Z,1011.8
2017-06-09T07:06:04.333Z,1011.79
2017-06-09T07:07:04.378Z,1011.75
2017-06-09T07:08:04.420Z,1011.76
2017-06-09T07:09:04.460Z,1011.77
2017-06-09T07:10:04.514Z,1011.77
2017-06-09T07:11:04.551Z,1011.75
2017-06-09T07:12:04.596Z,1011.69
2017-06-09T07:13:04.640Z,1011.79
2017-06-09T07:14:04.685Z,1011.77
2017-06-09T07:15:04.736Z,1011.72
2017-06-09T07:16:04.768Z,1011.68
2017-06-09T07:17:04.809Z,1011.69
2017-06-09T07:18:04.858Z,1011.71
2017-06-09T07:19:04.904Z,1011.74
2017-06-09T07:20:04.951Z,1011.68
2017-06-09T07:21:06.319Z,1011.8
2017-06-09T07:22:05.034Z,1011.74
2017-06-09T07:23:05.077Z,1011.69
2017-06-09T07:24:05.122Z,1011.76
2017-06-09T07:25:05.169Z,1011.82
2017-06-09T07:26:05.194Z,1011.79
2017-06-09T07:27:05.255Z,1011.75
2017-06-09T07:28:05.303Z,1011.74
2017-06-09T07:29:05.332Z,1011.77
2017-06-09T07:30:05.392Z,1011.7
2017-06-09T07:31:05.439Z,1011.66
2017-06-09T07:32:05.481Z,1011.64
2017-06-09T07:33:05.531Z,1011.53
2017-06-09T07:34:05.571Z,1011.56
2017-06-09T07:35:05.600Z,1011.53
2017-06-09T07:36:05.655Z,1011.66
2017-06-09T07:37:05.707Z,1011.5
2017-06-09T07:38:05.735Z,1011.5
2017-06-09T07:39:05.780Z,1011.56
2017-06-09T07:40:05.846Z,1011.49
2017-06-09T07:41:05.896Z,1011.49
2017-06-09T07:42:05.938Z,1011.54
2017-06-09T07:43:05.975Z,1011.51
2017-06-09T07:44:06.027Z,1011.51
2017-06-09T07:45:06.071Z,1011.54
2017-06-09T07:46:06.119Z,1011.61
2017-06-09T07:47:06.195Z,1011.6
2017-06-09T07:48:06.209Z,1011.57
2017-06-09T07:49:06.257Z,1011.6
2017-06-09T07:50:06.305Z,1011.53
2017-06-09T07:51:06.346Z,1011.59
2017-06-09T07:52:06.391Z,1011.54
2017-06-09T07:53:06.439Z,1011.53
2017-06-09T07:54:06.486Z,1011.49
2017-06-09T07:55:06.535Z,1011.5
2017-06-09T07:56:06.579Z,1011.52
2017-06-09T07:57:06.650Z,1011.47
2017-06-09T07:58:06.676Z,1011.59
2017-06-09T07:59:06.718Z,1011.63
2017-06-09T08:00:06.768Z,1011.64
2017-06-09T08:01:06.809Z,1011.56
2017-06-09T08:02:06.858Z,1011.54
2017-06-09T08:03:06.908Z,1011.53
2017-06-09T08:04:06.955Z,1011.58
2017-06-09T08:05:07.000Z,1011.57
2017-06-09T08:06:07.066Z,1011.55
2017-06-09T08:07:07.097Z,1011.57
2017-06-09T08:08:07.141Z,1011.65
2017-06-09T08:09:07.186Z,1011.59
2017-06-09T08:10:07.234Z,1011.62
2017-06-09T08:11:07.282Z,1011.6
2017-06-09T08:12:07.333Z,1011.62
2017-06-09T08:13:07.381Z,1011.63
2017-06-09T08:14:07.423Z,1011.58
2017-06-09T08:15:07.471Z,1011.62
2017-06-09T08:16:07.515Z,1011.6
2017-06-09T08:17:07.568Z,1011.65
2017-06-09T08:18:07.618Z,1011.69
2017-06-09T08:19:07.664Z,1011.68
2017-06-09T08:20:07.713Z,1011.69
2017-06-09T08:21:07.740Z,1011.63
2017-06-09T08:22:07.809Z,1011.57
2017-06-09T08:23:07.857Z,1011.57
2017-06-09T08:24:07.904Z,1011.5
2017-06-09T08:25:07.950Z,1011.62
2017-06-09T08:26:07.999Z,1011.6
2017-06-09T08:27:08.047Z,1011.52
2017-06-09T08:28:08.099Z,1011.56
2017-06-09T08:29:08.146Z,1011.54
2017-06-09T08:30:08.193Z,1011.66
2017-06-09T08:31:08.240Z,1011.57
2017-06-09T08:32:08.291Z,1011.6
2017-06-09T08:33:08.338Z,1011.59
2017-06-09T08:34:08.384Z,1011.55
2017-06-09T08:35:08.435Z,1011.59
2017-06-09T08:36:08.480Z,1011.56
2017-06-09T08:37:08.525Z,1011.5
2017-06-09T08:38:08.580Z,1011.55
2017-06-09T08:39:08.632Z,1011.55
2017-06-09T08:40:08.675Z,1011.58
2017-06-09T08:41:08.723Z,1011.56
2017-06-09T08:42:08.775Z,1011.66
2017-06-09T08:43:08.824Z,1011.61
2017-06-09T08:44:08.873Z,1011.62
2017-06-09T08:45:08.922Z,1011.57
2017-06-09T08:46:08.967Z,1011.65
2017-06-09T08:47:09.036Z,1011.6
2017-06-09T08:48:09.070Z,1011.64
2017-06-09T08:49:09.116Z,1011.61
2017-06-09T08:50:09.166Z,1011.54
2017-06-09T08:51:09.215Z,1011.5
2017-06-09T08:52:09.266Z,1011.49
2017-06-09T08:53:09.315Z,1011.56
2017-06-09T08:54:09.361Z,1011.57
2017-06-09T08:55:09.414Z,1011.63
2017-06-09T08:56:09.461Z,1011.55
2017-06-09T08:57:09.517Z,1011.62
2017-06-09T08:58:09.562Z,1011.58
2017-06-09T08:59:09.614Z,1011.58
2017-06-09T09:00:09.659Z,1011.57
2017-06-09T09:01:09.696Z,1011.6
2017-06-09T09:02:09.759Z,1011.46
2017-06-09T09:03:09.798Z,1011.49
2017-06-09T09:04:09.865Z,1011.42
2017-06-09T09:05:09.916Z,1011.43
2017-06-09T09:06:09.959Z,1011.5
2017-06-09T09:07:10.011Z,1011.52
2017-06-09T09:08:10.043Z,1011.57
2017-06-09T09:09:10.112Z,1011.56
2017-06-09T09:10:10.164Z,1011.48
2017-06-09T09:11:10.214Z,1011.39
2017-06-09T09:12:10.262Z,1011.66
2017-06-09T09:13:10.313Z,1011.53
2017-06-09T09:14:10.364Z,1011.46
2017-06-09T09:15:10.412Z,1011.53
2017-06-09T09:16:10.457Z,1011.5
2017-06-09T09:17:10.514Z,1011.42
2017-06-09T09:18:10.563Z,1011.47
2017-06-09T09:19:10.613Z,1011.51
2017-06-09T09:20:10.665Z,1011.49
2017-06-09T09:21:10.717Z,1011.56
2017-06-09T09:22:10.749Z,1011.52
2017-06-09T09:23:10.818Z,1011.5
2017-06-09T09:24:10.859Z,1011.46
2017-06-09T09:25:10.920Z,1011.44
2017-06-09T09:26:10.957Z,1011.4
2017-06-09T09:27:11.021Z,1011.37
2017-06-09T09:28:11.073Z,1011.3
2017-06-09T09:29:11.121Z,1011.17
2017-06-09T09:30:11.177Z,1011.05
2017-06-09T09:31:11.229Z,1011.13
2017-06-09T09:32:11.275Z,1011.11
2017-06-09T09:33:11.333Z,1011.26
2017-06-09T09:34:11.380Z,1011.28
2017-06-09T09:35:11.432Z,1011.22
2017-06-09T09:36:11.477Z,1011.16
2017-06-09T09:37:11.539Z,1011.11
2017-06-09T09:38:11.585Z,1011.18
2017-06-09T09:39:11.643Z,1011.25
2017-06-09T09:40:11.692Z,1011.25
2017-06-09T09:41:11.741Z,1011.23
2017-06-09T09:42:11.792Z,1011.27
2017-06-09T09:43:11.845Z,1011.27
2017-06-09T09:44:11.896Z,1011.22
2017-06-09T09:45:12.037Z,1011.23
2017-06-09T09:46:11.999Z,1011.15
2017-06-09T09:47:12.042Z,1011.2
2017-06-09T09:48:12.101Z,1011.17
2017-06-09T09:49:12.131Z,1011.18
2017-06-09T09:50:12.302Z,1011.25
2017-06-09T09:51:12.239Z,1011.19
2017-06-09T09:52:12.309Z,1011.17
2017-06-09T09:53:12.361Z,1011.08
2017-06-09T09:54:12.410Z,1011.22
2017-06-09T09:55:12.463Z,1011.14
2017-06-09T09:56:12.503Z,1011.17
2017-06-09T09:57:12.552Z,1011.17
2017-06-09T09:58:12.617Z,1011.1
2017-06-09T09:59:12.666Z,1011.09
2017-06-09T10:00:12.697Z,1010.97
2017-06-09T10:01:12.772Z,1010.93
2017-06-09T10:02:12.828Z,1010.89
2017-06-09T10:03:12.878Z,1010.9
2017-06-09T10:04:12.932Z,1010.89
2017-06-09T10:05:12.981Z,1010.86
2017-06-09T10:06:13.064Z,1010.91
2017-06-09T10:07:13.101Z,1010.93
2017-06-09T10:08:13.139Z,1010.96
2017-06-09T10:09:13.191Z,1011.02
2017-06-09T10:10:13.243Z,1011.08
2017-06-09T10:11:13.297Z,1010.99
2017-06-09T10:12:13.345Z,1011.12
2017-06-09T10:13:13.400Z,1011.14
2017-06-09T10:14:13.449Z,1011.15
2017-06-09T10:15:13.651Z,1011.18
2017-06-09T10:16:13.554Z,1011.2
2017-06-09T10:17:13.600Z,1011.2
2017-06-09T10:18:13.655Z,1011.29
2017-06-09T10:19:13.702Z,1011.42
2017-06-09T10:20:13.756Z,1011.35
2017-06-09T10:21:13.805Z,1011.27
2017-06-09T10:22:13.838Z,1011.27
2017-06-09T10:23:13.906Z,1011.4
2017-06-09T10:24:13.953Z,1011.34
2017-06-09T10:25:14.006Z,1011.34
2017-06-09T10:26:14.051Z,1011.48
2017-06-09T10:27:14.104Z,1011.55
2017-06-09T10:28:14.155Z,1011.52
2017-06-09T10:29:14.225Z,1011.62
2017-06-09T10:30:14.259Z,1011.64
2017-06-09T10:31:14.305Z,1011.58
2017-06-09T10:32:14.350Z,1011.66
2017-06-09T10:33:14.395Z,1011.83
2017-06-09T10:34:14.443Z,1011.9
2017-06-09T10:35:14.492Z,1011.92
2017-06-09T10:36:14.541Z,1011.63
2017-06-09T10:37:14.589Z,1011.39
2017-06-09T10:38:14.628Z,1011.34
2017-06-09T10:39:14.689Z,1011.34
2017-06-09T10:40:14.727Z,1011.18
2017-06-09T10:41:14.751Z,1011.17
2017-06-09T10:42:14.805Z,1010.76
2017-06-09T10:43:14.851Z,1010.81
2017-06-09T10:44:14.940Z,1010.82
2017-06-09T10:45:14.953Z,1010.81
2017-06-09T10:46:15.000Z,1011.14
2017-06-09T10:47:15.051Z,1011.53
2017-06-09T10:48:15.092Z,1011.39
2017-06-09T10:49:15.138Z,1012
2017-06-09T10:50:15.183Z,1012.09
2017-06-09T10:51:15.232Z,1011.86
2017-06-09T10:52:15.276Z,1011.61
2017-06-09T10:53:15.309Z,1011.5
2017-06-09T10:54:15.362Z,1011.61
2017-06-09T10:55:15.412Z,1012
2017-06-09T10:56:15.451Z,1012.19
2017-06-09T10:57:15.496Z,1011.08
2017-06-09T10:58:15.538Z,1009.81
2017-06-09T10:59:15.584Z,1009.61
2017-06-09T11:00:15.627Z,1009.53
2017-06-09T11:01:15.673Z,1009.52
2017-06-09T11:02:15.713Z,1009.58
2017-06-09T11:03:15.757Z,1009.57
2017-06-09T11:04:15.806Z,1009.52
2017-06-09T11:05:15.832Z,1009.44
2017-06-09T11:06:15.886Z,1009.34
2017-06-09T11:07:15.936Z,1009.38
2017-06-09T11:08:15.977Z,1009.36
2017-06-09T11:09:16.006Z,1009.37
2017-06-09T11:10:16.065Z,1009.36
2017-06-09T11:11:16.105Z,1009.36
2017-06-09T11:12:16.134Z,1009.39
2017-06-09T11:13:16.194Z,1009.43
2017-06-09T11:14:16.230Z,1009.36
2017-06-09T11:15:16.276Z,1009.28
2017-06-09T11:16:16.322Z,1009.27
2017-06-09T11:17:16.348Z,1009.25
2017-06-09T11:18:16.413Z,1009.25
2017-06-09T11:19:16.456Z,1009.35
2017-06-09T11:20:16.493Z,1009.2
2017-06-09T11:21:16.535Z,1009.22
2017-06-09T11:22:16.576Z,1009.16
2017-06-09T11:23:16.621Z,1009.17
2017-06-09T11:24:16.663Z,1009.12
2017-06-09T11:25:16.703Z,1009.19
2017-06-09T11:26:16.744Z,1009.11
2017-06-09T11:27:16.791Z,1009.03
2017-06-09T11:28:16.830Z,1009.05
2017-06-09T11:29:16.870Z,1008.94
2017-06-09T11:30:17.012Z,1009.05
2017-06-09T11:31:16.955Z,1009.02
2017-06-09T11:32:16.996Z,1008.97
2017-06-09T11:33:17.040Z,1009.03
2017-06-09T11:34:17.083Z,1008.98
2017-06-09T11:35:17.121Z,1008.93
2017-06-09T11:36:17.164Z,1009.05
2017-06-09T11:37:17.196Z,1008.97
2017-06-09T11:38:17.248Z,1008.92
2017-06-09T11:39:17.289Z,1009.01
2017-06-09T11:40:17.331Z,1008.98
2017-06-09T11:41:17.373Z,1008.88
2017-06-09T11:42:17.414Z,1008.89
2017-06-09T11:43:17.457Z,1008.89
2017-06-09T11:44:17.493Z,1008.82
2017-06-09T11:45:17.528Z,1008.84
2017-06-09T11:46:17.580Z,1008.84
2017-06-09T11:47:17.622Z,1008.87
2017-06-09T11:48:17.665Z,1008.8
2017-06-09T11:49:17.705Z,1008.79
2017-06-09T11:50:17.747Z,1008.81
2017-06-09T11:51:17.793Z,1008.74
2017-06-09T11:52:17.813Z,1008.75
2017-06-09T11:53:17.872Z,1008.87
2017-06-09T11:54:17.914Z,1008.8
2017-06-09T11:55:17.956Z,1008.81
2017-06-09T11:56:17.998Z,1008.77
2017-06-09T11:57:18.037Z,1008.73
2017-06-09T11:58:18.081Z,1008.8
2017-06-09T11:59:18.119Z,1008.81
2017-06-09T12:00:18.162Z,1008.72
2017-06-09T12:01:18.200Z,1008.75
2017-06-09T12:02:18.247Z,1008.69
2017-06-09T12:03:18.285Z,1008.71
2017-06-09T12:04:18.329Z,1008.69
2017-06-09T12:05:18.365Z,1008.7
2017-06-09T12:06:18.391Z,1008.76
2017-06-09T12:07:18.445Z,1008.77
2017-06-09T12:08:18.491Z,1008.78